Time;durP1;ratioP1;P1;durP2;ratioP2;P2;SDS_P1;SDS_P2;PMS_P1;PMS_P2;Temp;Humidity;BMP_temperature;BMP_pressure;BME280_temperature;BME280_humidity;BME280_pressure;Samples;Min_cycle;Max_cycle;Signal;HPM_P1;HPM_P2
2021/09/26 00:00:30;;;;;;;7.70;5.40;;;17.40;99.90;;;;;;4170363;28;20666;-75
2021/09/26 00:02:31;;;;;;;6.55;4.93;;;17.30;99.90;;;;;;4172846;28;20083;-75
2021/09/26 00:04:33;;;;;;;7.13;5.10;;;17.40;99.90;;;;;;4172998;28;20029;-75
2021/09/26 00:06:33;;;;;;;9.30;5.05;;;17.40;99.90;;;;;;4172307;28;20486;-75
2021/09/26 00:08:34;;;;;;;10.27;5.70;;;17.30;99.90;;;;;;4174176;28;20025;-75
2021/09/26 00:10:35;;;;;;;7.47;5.28;;;17.30;99.90;;;;;;4174181;28;20033;-75
2021/09/26 00:12:37;;;;;;;8.73;5.80;;;17.30;99.90;;;;;;4170337;28;20131;-75
2021/09/26 00:14:38;;;;;;;7.50;5.32;;;17.30;99.90;;;;;;4172385;28;20033;-74
2021/09/26 00:16:39;;;;;;;8.20;5.55;;;17.30;99.90;;;;;;4172502;28;20048;-75
2021/09/26 00:18:41;;;;;;;8.55;5.22;;;17.30;99.90;;;;;;4172735;28;20083;-75
2021/09/26 00:20:41;;;;;;;9.07;6.10;;;17.30;99.90;;;;;;4171021;28;20600;-75
2021/09/26 00:22:42;;;;;;;8.60;5.78;;;17.30;99.90;;;;;;4169856;28;20064;-75
2021/09/26 00:24:43;;;;;;;7.93;5.63;;;17.20;99.90;;;;;;4172158;28;20474;-75
2021/09/26 00:26:44;;;;;;;8.15;5.70;;;17.30;99.90;;;;;;4175782;28;20029;-75
2021/09/26 00:28:44;;;;;;;8.48;6.00;;;17.30;99.90;;;;;;4170906;28;20048;-75
2021/09/26 00:30:45;;;;;;;8.82;5.65;;;17.30;99.90;;;;;;4171435;28;20493;-75
2021/09/26 00:32:47;;;;;;;9.90;5.47;;;17.30;99.90;;;;;;4171864;28;20036;-75
2021/09/26 00:34:47;;;;;;;5.45;4.50;;;17.30;99.90;;;;;;4176055;28;20119;-75
2021/09/26 00:36:48;;;;;;;8.40;4.95;;;17.30;99.90;;;;;;4171953;28;20029;-75
2021/09/26 00:38:49;;;;;;;8.57;4.78;;;17.30;99.90;;;;;;4174897;28;20112;-75
2021/09/26 00:40:51;;;;;;;7.57;5.00;;;17.30;99.90;;;;;;4172642;28;20124;-75
2021/09/26 00:42:51;;;;;;;6.45;4.95;;;17.30;99.90;;;;;;4167723;28;20045;-75
2021/09/26 00:44:52;;;;;;;9.55;5.85;;;17.20;99.90;;;;;;4152976;28;20045;-75
2021/09/26 00:46:53;;;;;;;7.72;5.60;;;17.20;99.90;;;;;;4174378;28;20061;-75
2021/09/26 00:48:53;;;;;;;7.65;5.25;;;17.20;99.90;;;;;;4172012;28;20105;-75
2021/09/26 00:50:57;;;;;;;6.68;5.32;;;17.20;99.90;;;;;;4175164;28;20041;-75
2021/09/26 00:52:58;;;;;;;9.10;5.40;;;17.20;99.90;;;;;;4172239;28;20132;-75
2021/09/26 00:54:58;;;;;;;9.50;6.13;;;17.10;99.90;;;;;;4172440;28;20037;-75
2021/09/26 00:56:59;;;;;;;9.15;5.43;;;17.10;99.90;;;;;;4174055;28;20052;-74
2021/09/26 00:59:00;;;;;;;9.63;6.03;;;17.10;99.90;;;;;;4175180;28;20063;-75
2021/09/26 01:01:00;;;;;;;8.75;4.97;;;17.10;99.90;;;;;;4174351;28;20029;-75
2021/09/26 01:03:01;;;;;;;7.72;5.65;;;17.10;99.90;;;;;;4172806;28;20412;-75
2021/09/26 01:05:03;;;;;;;7.47;5.50;;;17.10;99.90;;;;;;4172315;28;20036;-75
2021/09/26 01:07:13;;;;;;;8.03;5.70;;;17.10;99.90;;;;;;4172502;28;20104;-75
2021/09/26 01:09:32;;;;;;;8.65;5.53;;;17.10;99.90;;;;;;4173115;28;20255;-75
2021/09/26 01:12:09;;;;;;;9.07;6.10;;;17.10;99.90;;;;;;4170714;28;20046;-75
2021/09/26 01:14:50;;;;;;;6.75;5.05;;;17.10;99.90;;;;;;4172688;28;20527;-75
2021/09/26 01:17:04;;;;;;;8.23;5.93;;;17.00;99.90;;;;;;4133012;28;20049;-75
2021/09/26 01:19:39;;;;;;;8.95;5.50;;;17.00;99.90;;;;;;4147596;28;20053;-75
2021/09/26 01:21:57;;;;;;;9.82;5.75;;;17.00;99.90;;;;;;4168945;28;20033;-75
2021/09/26 01:24:34;;;;;;;7.88;5.93;;;17.00;99.90;;;;;;4172767;28;20162;-75
2021/09/26 01:26:41;;;;;;;9.10;6.38;;;17.00;99.90;;;;;;4172601;28;20098;-75
2021/09/26 01:29:01;;;;;;;9.82;6.80;;;17.00;99.90;;;;;;4172321;28;20037;-75
2021/09/26 01:31:12;;;;;;;10.07;6.57;;;17.00;99.90;;;;;;4171470;28;20041;-75
2021/09/26 01:33:21;;;;;;;9.10;6.03;;;17.00;99.90;;;;;;4170445;28;20290;-75
2021/09/26 01:35:23;;;;;;;8.38;5.57;;;17.00;99.90;;;;;;4166811;28;20720;-75
2021/09/26 01:37:26;;;;;;;8.13;5.32;;;17.00;99.90;;;;;;4168737;28;20041;-75
2021/09/26 01:39:30;;;;;;;;;;;17.00;99.90;;;;;;4173478;28;20102;-75
2021/09/26 01:42:10;;;;;;;8.30;5.75;;;17.00;99.90;;;;;;4168869;28;19917;-75
2021/09/26 01:44:38;;;;;;;7.93;5.38;;;17.00;99.90;;;;;;4169533;28;20091;-75
2021/09/26 01:46:43;;;;;;;8.80;6.22;;;16.90;99.90;;;;;;4168587;28;20044;-75
2021/09/26 01:48:53;;;;;;;8.77;5.53;;;16.90;99.90;;;;;;4171963;28;20550;-75
2021/09/26 01:50:58;;;;;;;10.52;5.85;;;16.90;99.90;;;;;;4151593;28;20125;-75
2021/09/26 01:53:00;;;;;;;9.50;5.85;;;16.90;99.90;;;;;;4167982;28;20103;-75
2021/09/26 01:55:04;;;;;;;7.78;5.20;;;16.90;99.90;;;;;;4172666;28;20209;-75
2021/09/26 01:57:05;;;;;;;6.15;5.05;;;16.90;99.90;;;;;;4173141;28;20070;-75
2021/09/26 01:59:08;;;;;;;9.45;5.90;;;16.80;99.90;;;;;;4171959;28;20123;-76
2021/09/26 02:01:09;;;;;;;8.00;5.57;;;16.80;99.90;;;;;;4175720;28;20798;-75
2021/09/26 02:03:10;;;;;;;8.70;5.82;;;16.90;99.90;;;;;;4177224;28;20037;-75
2021/09/26 02:05:11;;;;;;;8.07;5.18;;;16.80;99.90;;;;;;4173862;28;20040;-75
2021/09/26 02:07:12;;;;;;;7.82;5.57;;;16.80;99.90;;;;;;4172657;28;20038;-75
2021/09/26 02:09:15;;;;;;;7.53;5.30;;;16.80;99.90;;;;;;4172544;28;20093;-75
2021/09/26 02:11:17;;;;;;;7.68;5.47;;;16.80;99.90;;;;;;4174571;28;20109;-75
2021/09/26 02:13:17;;;;;;;8.10;6.05;;;16.80;99.90;;;;;;4182110;28;20040;-75
2021/09/26 02:15:21;;;;;;;8.60;5.63;;;16.80;99.90;;;;;;4177579;28;20569;-75
2021/09/26 02:17:23;;;;;;;8.65;5.72;;;16.80;99.90;;;;;;4177193;28;20041;-75
2021/09/26 02:19:24;;;;;;;8.05;5.22;;;16.80;99.90;;;;;;4178772;28;20162;-75
2021/09/26 02:21:26;;;;;;;9.98;5.38;;;16.90;99.90;;;;;;4182557;28;20037;-75
2021/09/26 02:23:27;;;;;;;8.65;5.55;;;16.90;99.90;;;;;;4182303;28;20049;-75
2021/09/26 02:25:28;;;;;;;7.65;5.45;;;16.80;99.90;;;;;;4181574;28;20506;-75
2021/09/26 02:27:30;;;;;;;7.78;5.47;;;16.80;99.90;;;;;;4178618;28;20508;-74
2021/09/26 02:29:32;;;;;;;9.00;5.13;;;16.80;99.90;;;;;;4179705;28;20117;-75
2021/09/26 02:31:35;;;;;;;10.23;5.95;;;16.80;99.90;;;;;;4177841;28;20044;-75
2021/09/26 02:33:37;;;;;;;7.35;5.18;;;16.80;99.90;;;;;;4178845;28;20413;-75
2021/09/26 02:35:37;;;;;;;8.30;5.28;;;16.80;99.90;;;;;;4180779;28;20100;-75
2021/09/26 02:37:38;;;;;;;7.00;5.25;;;16.80;99.90;;;;;;4176267;28;20033;-75
2021/09/26 02:39:41;;;;;;;8.10;5.43;;;16.80;99.90;;;;;;4175366;28;20037;-75
2021/09/26 02:42:07;;;;;;;8.25;5.40;;;16.80;99.90;;;;;;4180940;28;20071;-75
2021/09/26 02:44:35;;;;;;;8.30;4.88;;;16.80;99.90;;;;;;4178071;28;20044;-75
2021/09/26 02:46:42;;;;;;;8.90;5.80;;;16.80;99.90;;;;;;4165905;28;20033;-75
2021/09/26 02:48:44;;;;;;;9.00;5.78;;;16.80;99.90;;;;;;4157743;28;20038;-75
2021/09/26 02:50:47;;;;;;;7.70;5.73;;;16.80;99.90;;;;;;4156324;28;20040;-75
2021/09/26 02:52:49;;;;;;;7.43;5.50;;;16.70;99.90;;;;;;4155733;28;20061;-75
2021/09/26 02:54:50;;;;;;;6.95;5.07;;;16.80;99.90;;;;;;4157561;28;20547;-75
2021/09/26 02:56:51;;;;;;;8.13;5.68;;;16.80;99.90;;;;;;4154929;28;20034;-75
2021/09/26 02:58:54;;;;;;;6.68;5.05;;;16.80;99.90;;;;;;4159782;28;20037;-75
2021/09/26 03:00:55;;;;;;;8.38;5.13;;;16.80;99.90;;;;;;4135322;28;20433;-74
2021/09/26 03:03:08;;;;;;;8.52;5.00;;;16.80;99.90;;;;;;4155230;28;20038;-75
2021/09/26 03:05:09;;;;;;;7.57;5.38;;;16.80;99.90;;;;;;4157839;28;20041;-75
2021/09/26 03:07:12;;;;;;;9.38;5.63;;;16.80;99.90;;;;;;4156820;28;20069;-75
2021/09/26 03:09:13;;;;;;;11.13;5.47;;;16.80;99.90;;;;;;4157731;28;20038;-75
2021/09/26 03:11:13;;;;;;;8.88;5.53;;;16.80;99.90;;;;;;4157957;28;20128;-75
2021/09/26 03:13:15;;;;;;;8.40;5.50;;;16.80;99.90;;;;;;4157135;28;20093;-75
2021/09/26 03:15:15;;;;;;;7.05;5.13;;;16.80;99.90;;;;;;4155691;28;20573;-75
2021/09/26 03:17:16;;;;;;;7.43;5.80;;;16.80;99.90;;;;;;4152307;28;20196;-75
2021/09/26 03:19:17;;;;;;;7.90;5.38;;;16.80;99.90;;;;;;4155762;28;20053;-75
2021/09/26 03:21:18;;;;;;;7.28;4.97;;;16.80;99.90;;;;;;4155304;28;20042;-75
2021/09/26 03:23:19;;;;;;;6.80;5.22;;;16.80;99.90;;;;;;4157890;28;20098;-74
2021/09/26 03:25:20;;;;;;;7.95;5.57;;;16.80;99.90;;;;;;4156413;28;20045;-75
2021/09/26 03:27:21;;;;;;;6.50;4.88;;;16.80;99.90;;;;;;4140595;28;20057;-75
2021/09/26 03:29:21;;;;;;;7.97;4.60;;;16.80;99.90;;;;;;4157044;28;20045;-75
2021/09/26 03:31:23;;;;;;;7.13;5.22;;;16.80;99.90;;;;;;4155394;28;20040;-75
2021/09/26 03:33:24;;;;;;;7.00;4.78;;;16.80;99.90;;;;;;4152922;28;20046;-75
2021/09/26 03:35:25;;;;;;;6.55;5.00;;;16.90;99.90;;;;;;4173739;28;20535;-75
2021/09/26 03:37:25;;;;;;;8.48;5.18;;;16.90;99.90;;;;;;4175069;28;20029;-75
2021/09/26 03:39:26;;;;;;;7.63;5.10;;;16.90;99.90;;;;;;4173013;28;20033;-75
2021/09/26 03:41:27;;;;;;;10.63;5.53;;;16.90;99.90;;;;;;4170305;28;20040;-75
2021/09/26 03:43:27;;;;;;;7.28;4.85;;;17.00;99.90;;;;;;4175430;28;20499;-75
2021/09/26 03:45:28;;;;;;;6.20;4.90;;;17.00;99.90;;;;;;4157769;28;20026;-75
2021/09/26 03:47:28;;;;;;;6.57;4.97;;;17.00;99.90;;;;;;4179018;28;20025;-75
2021/09/26 03:49:29;;;;;;;7.38;4.78;;;17.10;99.90;;;;;;4176067;28;20079;-75
2021/09/26 03:51:30;;;;;;;6.35;4.65;;;17.10;99.90;;;;;;4178514;28;20041;-75
2021/09/26 03:53:31;;;;;;;6.75;4.47;;;17.10;99.90;;;;;;4177243;28;20037;-75
2021/09/26 03:55:31;;;;;;;7.28;5.22;;;17.10;99.90;;;;;;4181403;28;20032;-76
2021/09/26 03:57:32;;;;;;;6.90;5.05;;;17.10;99.90;;;;;;4178711;28;20036;-75
2021/09/26 03:59:33;;;;;;;9.07;5.13;;;17.20;99.90;;;;;;4174793;28;20022;-75
2021/09/26 04:01:33;;;;;;;7.10;5.43;;;17.20;99.90;;;;;;4172020;28;20063;-75
2021/09/26 04:03:34;;;;;;;5.95;4.60;;;17.20;99.90;;;;;;4159356;28;20060;-75
2021/09/26 04:05:34;;;;;;;8.32;5.57;;;17.20;99.90;;;;;;4180373;28;20112;-75
2021/09/26 04:07:35;;;;;;;7.78;5.18;;;17.20;99.90;;;;;;4180324;28;20044;-75
2021/09/26 04:09:36;;;;;;;9.70;5.22;;;17.20;99.90;;;;;;4174418;28;20420;-75
2021/09/26 04:11:37;;;;;;;7.63;5.50;;;17.20;99.90;;;;;;4178793;28;20036;-75
2021/09/26 04:13:38;;;;;;;5.13;4.47;;;17.20;99.90;;;;;;4177392;28;20060;-75
2021/09/26 04:15:39;;;;;;;6.68;5.05;;;17.20;99.90;;;;;;4158846;28;20039;-75
2021/09/26 04:17:40;;;;;;;11.38;5.40;;;17.20;99.90;;;;;;4177447;28;20068;-75
2021/09/26 04:19:40;;;;;;;7.53;5.35;;;17.20;99.90;;;;;;4174768;28;20073;-75
2021/09/26 04:21:41;;;;;;;8.75;5.78;;;17.20;99.90;;;;;;4178109;28;20052;-75
2021/09/26 04:23:41;;;;;;;7.82;4.93;;;17.30;99.90;;;;;;4177075;28;20439;-75
2021/09/26 04:25:42;;;;;;;6.72;4.82;;;17.20;99.90;;;;;;4180555;28;20506;-75
2021/09/26 04:27:43;;;;;;;7.78;5.30;;;17.30;99.90;;;;;;4176209;28;20736;-75
2021/09/26 04:29:43;;;;;;;7.57;4.93;;;17.30;99.90;;;;;;4174267;28;20032;-75
2021/09/26 04:31:44;;;;;;;7.78;5.35;;;17.30;99.90;;;;;;4173817;28;20029;-75
2021/09/26 04:33:45;;;;;;;9.43;5.60;;;17.30;99.90;;;;;;4172960;28;20094;-75
2021/09/26 04:35:45;;;;;;;6.60;4.97;;;17.30;99.90;;;;;;4173715;28;20033;-75
2021/09/26 04:37:46;;;;;;;5.90;4.55;;;17.30;99.90;;;;;;4172392;28;20036;-75
2021/09/26 04:39:47;;;;;;;5.80;4.68;;;17.30;99.90;;;;;;4170299;28;20389;-75
2021/09/26 04:41:47;;;;;;;6.65;5.22;;;17.30;99.90;;;;;;4171769;28;20057;-75
2021/09/26 04:43:48;;;;;;;7.85;5.53;;;17.30;99.90;;;;;;4171204;28;20025;-75
2021/09/26 04:45:48;;;;;;;7.35;5.15;;;17.40;99.90;;;;;;4172195;28;20029;-75
2021/09/26 04:47:49;;;;;;;6.25;4.90;;;17.40;99.90;;;;;;4172852;28;20189;-75
2021/09/26 04:49:50;;;;;;;7.35;4.75;;;17.40;99.90;;;;;;4173150;28;20122;-75
2021/09/26 04:51:50;;;;;;;6.97;4.93;;;17.40;99.90;;;;;;4172270;28;20064;-75
2021/09/26 04:53:51;;;;;;;6.20;4.57;;;17.40;99.90;;;;;;4173039;28;20485;-75
2021/09/26 04:55:51;;;;;;;6.57;4.45;;;17.50;99.90;;;;;;4172142;28;20041;-75
2021/09/26 04:57:54;;;;;;;7.47;5.30;;;17.50;99.90;;;;;;4172174;28;20115;-75
2021/09/26 04:59:55;;;;;;;;;;;17.50;99.90;;;;;;4173386;28;20037;-75
2021/09/26 05:01:55;;;;;;;8.00;4.82;;;17.50;99.90;;;;;;4168719;28;19992;-75
2021/09/26 05:03:56;;;;;;;6.40;4.95;;;17.50;99.90;;;;;;4170750;28;20037;-75
2021/09/26 05:05:56;;;;;;;6.68;5.07;;;17.50;99.90;;;;;;4167344;28;20041;-75
2021/09/26 05:07:57;;;;;;;6.93;5.40;;;17.50;99.90;;;;;;4168688;28;20550;-75
2021/09/26 05:09:57;;;;;;;9.68;5.32;;;17.60;99.90;;;;;;4166788;28;20065;-75
2021/09/26 05:11:58;;;;;;;7.30;5.43;;;17.60;99.90;;;;;;4173822;28;20040;-75
2021/09/26 05:13:59;;;;;;;9.60;5.82;;;17.50;99.90;;;;;;4172346;28;20152;-75
2021/09/26 05:16:00;;;;;;;8.60;5.25;;;17.50;99.90;;;;;;4174322;28;20104;-75
2021/09/26 05:18:01;;;;;;;10.20;6.07;;;17.50;99.90;;;;;;4173402;28;20033;-75
2021/09/26 05:20:02;;;;;;;7.93;5.93;;;17.50;99.90;;;;;;4172841;28;20558;-75
2021/09/26 05:22:03;;;;;;;6.53;5.03;;;17.40;99.90;;;;;;4171656;28;20028;-75
2021/09/26 05:24:04;;;;;;;8.00;5.68;;;17.40;99.90;;;;;;4165320;28;21599;-75
2021/09/26 05:26:07;;;;;;;11.70;6.43;;;17.40;99.90;;;;;;4172639;28;20044;-76
2021/09/26 05:28:07;;;;;;;8.93;5.88;;;17.30;99.90;;;;;;4174967;28;20524;-75
2021/09/26 05:30:09;;;;;;;10.48;6.35;;;17.30;99.90;;;;;;4169503;28;20087;-75
2021/09/26 05:32:10;;;;;;;8.93;6.05;;;17.30;99.90;;;;;;4171334;28;20124;-75
2021/09/26 05:34:10;;;;;;;10.40;6.50;;;17.40;99.90;;;;;;4171701;28;20420;-75
2021/09/26 05:36:11;;;;;;;8.75;6.07;;;17.30;99.90;;;;;;4171410;28;20048;-75
2021/09/26 05:38:12;;;;;;;11.65;6.93;;;17.30;99.90;;;;;;4173391;28;20033;-75
2021/09/26 05:40:13;;;;;;;8.70;6.28;;;17.30;99.90;;;;;;4169778;28;20037;-75
2021/09/26 05:42:14;;;;;;;8.07;5.75;;;17.30;99.90;;;;;;4175227;28;20066;-75
2021/09/26 05:44:14;;;;;;;9.20;6.38;;;17.30;99.90;;;;;;4171507;28;20052;-75
2021/09/26 05:46:15;;;;;;;9.32;6.10;;;17.30;99.90;;;;;;4173213;28;20108;-75
2021/09/26 05:48:16;;;;;;;10.43;6.20;;;17.30;99.90;;;;;;4173086;28;20048;-75
2021/09/26 05:50:17;;;;;;;9.15;6.28;;;17.30;99.90;;;;;;4167585;28;20120;-75
2021/09/26 05:52:17;;;;;;;10.23;6.68;;;17.30;99.90;;;;;;4172659;28;20102;-75
2021/09/26 05:54:19;;;;;;;8.10;5.55;;;17.30;99.90;;;;;;4173482;28;20033;-75
2021/09/26 05:56:20;;;;;;;10.55;6.72;;;17.30;99.90;;;;;;4172667;28;20064;-75
2021/09/26 05:58:21;;;;;;;9.70;6.10;;;17.30;99.90;;;;;;4171240;28;20026;-75
2021/09/26 06:00:25;;;;;;;10.15;6.57;;;17.30;99.90;;;;;;4171928;28;20037;-75
2021/09/26 06:02:27;;;;;;;10.50;6.30;;;17.30;99.90;;;;;;4172363;28;20112;-75
2021/09/26 06:04:27;;;;;;;11.30;6.35;;;17.30;99.90;;;;;;4171298;28;20094;-75
2021/09/26 06:06:28;;;;;;;9.13;6.32;;;17.30;99.90;;;;;;4171483;28;20688;-75
2021/09/26 06:08:28;;;;;;;7.63;5.88;;;17.30;99.90;;;;;;4170320;28;20269;-75
2021/09/26 06:10:29;;;;;;;12.73;5.82;;;17.40;99.90;;;;;;4172269;28;20044;-75
2021/09/26 06:12:30;;;;;;;8.50;5.60;;;17.40;99.90;;;;;;4171753;28;20041;-76
2021/09/26 06:14:30;;;;;;;7.65;5.75;;;17.40;99.90;;;;;;4172825;28;20047;-75
2021/09/26 06:16:31;;;;;;;9.27;6.07;;;17.40;99.90;;;;;;4174582;28;20489;-75
2021/09/26 06:18:32;;;;;;;7.90;5.90;;;17.40;99.90;;;;;;4168630;28;20156;-75
2021/09/26 06:20:33;;;;;;;7.60;5.53;;;17.50;99.90;;;;;;4169713;28;20123;-75
2021/09/26 06:22:33;;;;;;;9.18;6.20;;;17.40;99.90;;;;;;4170693;28;20029;-75
2021/09/26 06:24:34;;;;;;;7.97;5.35;;;17.40;99.90;;;;;;4170216;28;20421;-75
2021/09/26 06:26:35;;;;;;;8.68;6.15;;;17.50;99.90;;;;;;4166769;28;20175;-75
2021/09/26 06:28:35;;;;;;;9.82;5.50;;;17.40;99.90;;;;;;4174429;28;20041;-76
2021/09/26 06:30:37;;;;;;;7.22;5.53;;;17.40;99.90;;;;;;4172687;28;20044;-75
2021/09/26 06:32:37;;;;;;;8.65;5.93;;;17.50;99.90;;;;;;4157553;28;20033;-75
2021/09/26 06:34:38;;;;;;;10.35;6.25;;;17.50;99.90;;;;;;4171531;28;20041;-75
2021/09/26 06:36:39;;;;;;;10.07;6.18;;;17.50;99.90;;;;;;4167799;28;20021;-76
2021/09/26 06:38:39;;;;;;;8.60;5.50;;;17.50;99.90;;;;;;4172390;28;20079;-75
2021/09/26 06:40:40;;;;;;;10.98;6.03;;;17.60;99.90;;;;;;4175278;28;20489;-76
2021/09/26 06:42:41;;;;;;;9.75;5.78;;;17.60;99.90;;;;;;4170552;28;20037;-75
2021/09/26 06:44:42;;;;;;;8.48;5.50;;;17.60;99.90;;;;;;4175016;28;20102;-75
2021/09/26 06:46:42;;;;;;;8.20;6.15;;;17.60;99.90;;;;;;4174567;28;20079;-76
2021/09/26 06:48:44;;;;;;;8.75;6.50;;;17.60;99.90;;;;;;4169887;28;20497;-76
2021/09/26 06:50:45;;;;;;;9.00;6.40;;;17.70;99.90;;;;;;4176047;28;20029;-76
2021/09/26 06:52:46;;;;;;;8.68;6.38;;;17.60;99.90;;;;;;4169462;28;20073;-75
2021/09/26 06:54:47;;;;;;;9.25;6.50;;;17.70;99.90;;;;;;4177690;28;20038;-78
2021/09/26 06:56:48;;;;;;;11.32;6.85;;;17.70;99.90;;;;;;4179531;28;20373;-78
2021/09/26 06:58:49;;;;;;;9.18;6.93;;;17.70;99.90;;;;;;4173198;28;20028;-78
2021/09/26 07:00:51;;;;;;;8.98;6.40;;;17.70;99.90;;;;;;4170901;28;20079;-77
2021/09/26 07:02:52;;;;;;;10.05;6.68;;;17.70;99.90;;;;;;4172604;28;20021;-76
2021/09/26 07:04:53;;;;;;;9.38;6.90;;;17.70;99.90;;;;;;4175086;28;20029;-75
2021/09/26 07:06:54;;;;;;;11.73;7.10;;;17.70;99.90;;;;;;4170751;28;20061;-76
2021/09/26 07:08:55;;;;;;;11.45;6.78;;;17.70;99.90;;;;;;4173963;28;20041;-76
2021/09/26 07:10:55;;;;;;;9.50;6.25;;;17.70;99.90;;;;;;4171868;28;20116;-75
2021/09/26 07:12:56;;;;;;;11.80;7.07;;;17.80;99.90;;;;;;4174466;28;20021;-76
2021/09/26 07:15:01;;;;;;;10.30;6.60;;;17.80;99.90;;;;;;4174970;28;20029;-76
2021/09/26 07:17:02;;;;;;;8.85;6.50;;;17.80;99.90;;;;;;4173042;28;20025;-76
2021/09/26 07:19:03;;;;;;;14.65;7.60;;;17.90;99.90;;;;;;4173687;28;20021;-76
2021/09/26 07:21:04;;;;;;;12.75;7.90;;;17.90;99.90;;;;;;4174270;28;20026;-75
2021/09/26 07:23:05;;;;;;;10.68;7.57;;;17.90;99.90;;;;;;4173854;28;20491;-76
2021/09/26 07:25:06;;;;;;;11.85;6.82;;;17.90;99.90;;;;;;4174516;28;20422;-75
2021/09/26 07:27:07;;;;;;;9.52;7.00;;;18.00;99.90;;;;;;4170520;28;20373;-75
2021/09/26 07:29:08;;;;;;;9.25;6.75;;;18.00;99.90;;;;;;4172349;28;20055;-76
2021/09/26 07:31:08;;;;;;;11.85;7.03;;;18.10;99.90;;;;;;4173121;28;20069;-75
2021/09/26 07:33:09;;;;;;;11.95;7.60;;;18.10;99.90;;;;;;4172738;28;20040;-76
2021/09/26 07:35:10;;;;;;;11.10;7.13;;;18.20;99.90;;;;;;4171867;28;20025;-76
2021/09/26 07:37:11;;;;;;;10.90;7.07;;;18.20;99.90;;;;;;4170170;28;22198;-76
2021/09/26 07:39:12;;;;;;;10.85;7.57;;;18.20;99.90;;;;;;4170754;28;20056;-76
2021/09/26 07:41:13;;;;;;;13.25;7.70;;;18.30;99.90;;;;;;4168752;28;20039;-76
2021/09/26 07:43:13;;;;;;;12.32;7.43;;;18.30;99.90;;;;;;4171530;28;20048;-76
2021/09/26 07:45:14;;;;;;;9.55;6.68;;;18.40;99.90;;;;;;4169667;28;20201;-76
2021/09/26 07:47:15;;;;;;;9.25;7.05;;;18.40;99.90;;;;;;4165905;28;20139;-76
2021/09/26 07:49:16;;;;;;;9.73;6.82;;;18.50;99.90;;;;;;4169919;28;20043;-76
2021/09/26 07:51:17;;;;;;;9.65;7.38;;;18.60;99.90;;;;;;4167564;28;20388;-76
2021/09/26 07:53:18;;;;;;;9.07;6.55;;;18.70;99.90;;;;;;4153232;28;20409;-76
2021/09/26 07:55:18;;;;;;;10.35;6.97;;;18.80;99.90;;;;;;4170636;28;20029;-76
2021/09/26 07:57:20;;;;;;;8.82;6.30;;;18.90;99.90;;;;;;4171173;28;20114;-76
2021/09/26 07:59:20;;;;;;;8.45;6.05;;;19.10;99.90;;;;;;4171069;28;20025;-76
2021/09/26 08:01:21;;;;;;;7.60;5.63;;;19.20;99.90;;;;;;4171469;28;20032;-76
2021/09/26 08:03:22;;;;;;;8.68;5.97;;;19.30;99.90;;;;;;4170544;28;20060;-76
2021/09/26 08:05:23;;;;;;;8.35;5.65;;;19.50;99.90;;;;;;4170465;28;20041;-76
2021/09/26 08:07:23;;;;;;;8.25;6.10;;;19.70;99.90;;;;;;4169677;28;20089;-76
2021/09/26 08:09:24;;;;;;;7.57;5.45;;;19.80;99.90;;;;;;4171782;28;20523;-76
2021/09/26 08:11:24;;;;;;;6.22;4.90;;;20.00;99.90;;;;;;4171202;28;20538;-76
2021/09/26 08:13:25;;;;;;;8.23;5.07;;;20.10;99.90;;;;;;4152514;28;20107;-76
2021/09/26 08:15:26;;;;;;;8.57;5.53;;;20.20;99.90;;;;;;4168902;28;20468;-76
2021/09/26 08:17:26;;;;;;;7.88;5.07;;;20.30;99.90;;;;;;4170190;28;20638;-76
2021/09/26 08:19:27;;;;;;;6.97;4.63;;;20.50;99.90;;;;;;4169845;28;20112;-76
2021/09/26 08:21:28;;;;;;;8.07;4.70;;;20.60;99.90;;;;;;4168597;28;20021;-76
2021/09/26 08:23:28;;;;;;;8.23;4.53;;;20.80;99.90;;;;;;4170975;28;20045;-75
2021/09/26 08:25:29;;;;;;;8.23;4.97;;;20.80;99.90;;;;;;4170237;28;20065;-76
2021/09/26 08:27:30;;;;;;;5.30;4.20;;;21.00;99.90;;;;;;4152414;28;20033;-76
2021/09/26 08:29:31;;;;;;;5.82;4.38;;;21.10;99.90;;;;;;4170984;28;20033;-76
2021/09/26 08:31:31;;;;;;;4.82;3.75;;;21.20;99.90;;;;;;4170541;28;20033;-76
2021/09/26 08:33:32;;;;;;;5.32;4.15;;;21.40;99.90;;;;;;4169595;28;20489;-76
2021/09/26 08:35:33;;;;;;;4.70;3.80;;;21.40;99.90;;;;;;4169866;28;20428;-76
2021/09/26 08:37:33;;;;;;;5.38;4.38;;;21.60;99.90;;;;;;4170853;28;20615;-76
2021/09/26 08:39:34;;;;;;;6.80;4.00;;;21.70;99.90;;;;;;4174597;28;20175;-76
2021/09/26 08:41:35;;;;;;;7.82;4.75;;;21.80;99.90;;;;;;4171917;28;20948;-76
2021/09/26 08:43:36;;;;;;;7.47;5.22;;;21.90;99.90;;;;;;4155023;28;20037;-76
2021/09/26 08:45:39;;;;;;;12.02;5.20;;;21.90;99.90;;;;;;4170828;28;20045;-76
2021/09/26 08:47:41;;;;;;;8.40;4.20;;;22.00;99.90;;;;;;4172717;28;20449;-76
2021/09/26 08:49:43;;;;;;;7.78;4.65;;;22.10;99.90;;;;;;4170659;28;20037;-76
2021/09/26 08:51:49;;;;;;;5.10;4.03;;;22.10;99.90;;;;;;4171365;28;20037;-76
2021/09/26 08:53:51;;;;;;;8.15;4.43;;;22.20;99.90;;;;;;4171777;28;20045;-76
2021/09/26 08:55:53;;;;;;;6.03;4.50;;;22.20;99.90;;;;;;4173461;28;20127;-76
2021/09/26 08:57:54;;;;;;;6.53;4.50;;;22.30;99.90;;;;;;4170539;28;20040;-76
2021/09/26 08:59:54;;;;;;;7.15;4.30;;;22.30;99.90;;;;;;4172846;28;20385;-76
2021/09/26 09:01:55;;;;;;;8.15;4.45;;;22.40;99.90;;;;;;4173853;28;20114;-76
2021/09/26 09:03:55;;;;;;;4.75;3.83;;;22.50;99.90;;;;;;4163693;28;20025;-76
2021/09/26 09:05:56;;;;;;;7.32;4.13;;;22.60;99.90;;;;;;4146461;28;20034;-76
2021/09/26 09:08:03;;;;;;;6.47;4.15;;;22.60;99.90;;;;;;4160681;28;20539;-76
2021/09/26 09:10:05;;;;;;;7.20;4.47;;;22.60;99.90;;;;;;4154169;28;20041;-76
2021/09/26 09:12:09;;;;;;;5.93;4.45;;;22.70;99.90;;;;;;4154935;28;20473;-76
2021/09/26 09:14:10;;;;;;;7.05;4.25;;;22.70;99.90;;;;;;4153781;28;20037;-76
2021/09/26 09:16:13;;;;;;;5.93;4.03;;;22.80;99.90;;;;;;4156093;28;20042;-76
2021/09/26 09:18:14;;;;;;;8.93;4.22;;;22.80;99.90;;;;;;4154610;28;20528;-76
2021/09/26 09:20:17;;;;;;;6.97;4.22;;;22.90;99.90;;;;;;4152024;28;20090;-75
2021/09/26 09:22:28;;;;;;;5.25;3.97;;;23.00;99.90;;;;;;4155624;28;20119;-76
2021/09/26 09:24:29;;;;;;;8.65;4.57;;;23.10;99.90;;;;;;4168737;28;20497;-75
2021/09/26 09:26:35;;;;;;;6.78;4.32;;;23.10;99.90;;;;;;4175608;28;20048;-76
2021/09/26 09:28:39;;;;;;;8.75;4.57;;;23.20;99.90;;;;;;4174295;28;20500;-76
2021/09/26 09:30:47;;;;;;;6.20;4.15;;;23.20;99.90;;;;;;4172827;28;20684;-76
2021/09/26 09:32:55;;;;;;;6.47;4.22;;;23.20;99.90;;;;;;4176625;28;20391;-76
2021/09/26 09:34:56;;;;;;;5.38;3.50;;;23.30;99.90;;;;;;4171302;28;20112;-76
2021/09/26 09:37:09;;;;;;;8.10;4.18;;;23.30;99.90;;;;;;4171328;28;20037;-76
2021/09/26 09:39:16;;;;;;;7.20;3.53;;;23.30;99.90;;;;;;4171487;28;20098;-76
2021/09/26 09:41:36;;;;;;;4.30;3.45;;;23.40;99.90;;;;;;4172175;28;20068;-76
2021/09/26 09:43:49;;;;;;;5.60;3.85;;;23.50;99.90;;;;;;4174191;28;20025;-76
2021/09/26 09:45:55;;;;;;;4.93;3.72;;;23.60;99.90;;;;;;4169052;28;20078;-76
2021/09/26 09:48:00;;;;;;;4.97;3.80;;;23.60;99.90;;;;;;4171087;28;20021;-75
2021/09/26 09:50:01;;;;;;;5.32;3.30;;;23.60;99.90;;;;;;4163233;28;20041;-76
2021/09/26 09:52:02;;;;;;;5.22;3.95;;;23.70;99.90;;;;;;4176989;28;20806;-76
2021/09/26 09:54:04;;;;;;;4.83;3.57;;;23.70;99.90;;;;;;4177635;28;20029;-76
2021/09/26 09:56:19;;;;;;;7.35;3.70;;;23.80;99.90;;;;;;4173225;28;20128;-76
2021/09/26 09:58:20;;;;;;;6.25;3.80;;;23.80;99.90;;;;;;4171053;28;20261;-76
2021/09/26 10:00:22;;;;;;;5.45;3.90;;;23.80;99.90;;;;;;4173921;28;20040;-76
2021/09/26 10:02:33;;;;;;;4.03;3.10;;;23.70;99.90;;;;;;4176578;28;20753;-75
2021/09/26 10:04:39;;;;;;;4.93;3.53;;;23.80;99.90;;;;;;4154089;28;20429;-74
2021/09/26 10:06:45;;;;;;;4.38;3.33;;;23.80;99.90;;;;;;4156892;28;20040;-76
2021/09/26 10:08:46;;;;;;;5.65;3.80;;;23.80;99.90;;;;;;4156069;28;20486;-76
2021/09/26 10:10:46;;;;;;;4.65;3.55;;;23.80;99.90;;;;;;4154353;28;20096;-76
2021/09/26 10:12:49;;;;;;;4.65;3.50;;;23.80;99.90;;;;;;4151929;28;20088;-76
2021/09/26 10:14:51;;;;;;;;;;;23.90;99.90;;;;;;4155374;28;20219;-75
2021/09/26 10:16:53;;;;;;;4.60;3.53;;;23.90;99.90;;;;;;4148721;28;19913;-76
2021/09/26 10:18:54;;;;;;;5.93;3.70;;;23.90;99.90;;;;;;4169565;28;20048;-75
2021/09/26 10:20:55;;;;;;;5.82;3.30;;;23.90;99.90;;;;;;4170950;28;20037;-76
2021/09/26 10:22:57;;;;;;;4.35;3.38;;;23.90;99.90;;;;;;4167947;28;20110;-76
2021/09/26 10:24:57;;;;;;;5.80;3.42;;;24.00;99.90;;;;;;4169547;28;20086;-76
2021/09/26 10:27:01;;;;;;;6.10;3.60;;;24.00;99.90;;;;;;4169704;28;20473;-76
2021/09/26 10:29:05;;;;;;;8.57;3.63;;;24.10;99.90;;;;;;4170779;28;20041;-76
2021/09/26 10:31:05;;;;;;;4.43;3.67;;;24.10;99.90;;;;;;4175627;28;20626;-76
2021/09/26 10:33:06;;;;;;;10.35;3.90;;;24.10;99.90;;;;;;4174945;28;20029;-76
2021/09/26 10:35:07;;;;;;;4.53;3.33;;;24.10;99.90;;;;;;4172177;28;20037;-76
2021/09/26 10:37:14;;;;;;;3.90;3.03;;;24.20;99.90;;;;;;4166222;28;20394;-76